Eastonville, Colorado
Current Conditions -  °F | °C
As of 2:53 AM on Sunday 26 Oct 2014 (Local Time) from KFLY Reporting Station
Clear Clear  
Wind Chill: 60°   Ceiling: Unl
Heat Index: 60°   Visibility: 10mi
Dew Point: 26°   Wind: 20mph
Humidity: 28%   Direction: 290°WNW
Pressure: 30.04"   Gusts: 25mph
Location:  39.0051°N, 104.503°W
Report Text: KFLY 260853Z AUTO 29017G22KT 10SM CLR 16/M03 A3004 RMK AO2 T01551031
Loading
Personal Weather Stations






























Interactive Weather Map
Tropical Storm Tracking
New forecast layout! Learn more

10-Day Weather Forecast

Advertisements
Track Severe Weather on mobile